Time;durP1;ratioP1;P1;durP2;ratioP2;P2;SDS_P1;SDS_P2;PMS_P1;PMS_P2;Temp;Humidity;BMP_temperature;BMP_pressure;BME280_temperature;BME280_humidity;BME280_pressure;Samples;Min_cycle;Max_cycle;Signal;HPM_P1;HPM_P2
2021/07/01 00:00:06;;;;;;;5.57;1.88;;;;;;;25.45;41.60;100737.09;5090753;28;20113;-65
2021/07/01 00:02:34;;;;;;;4.63;2.20;;;;;;;25.40;41.58;100731.88;5091158;28;20137;-64
2021/07/01 00:05:02;;;;;;;5.57;2.22;;;;;;;25.46;41.56;100727.16;5091036;28;20053;-65
2021/07/01 00:07:29;;;;;;;4.18;1.75;;;;;;;25.38;41.58;100727.50;5090670;28;20035;-64
2021/07/01 00:09:58;;;;;;;3.30;2.05;;;;;;;25.32;41.56;100720.56;5091345;28;20048;-64
2021/07/01 00:12:26;;;;;;;6.50;2.63;;;;;;;25.30;41.71;100725.16;5090309;28;20127;-64
2021/07/01 00:14:53;;;;;;;4.50;1.90;;;;;;;25.23;41.92;100715.56;5090798;28;20054;-64
2021/07/01 00:17:20;;;;;;;2.60;1.92;;;;;;;25.29;41.69;100720.69;5091004;28;20032;-64
2021/07/01 00:19:48;;;;;;;3.20;1.85;;;;;;;25.25;41.81;100718.19;5091012;28;20135;-65
2021/07/01 00:22:16;;;;;;;4.30;2.13;;;;;;;25.28;41.82;100713.53;5090817;28;20036;-65
2021/07/01 00:24:43;;;;;;;5.28;2.20;;;;;;;25.17;41.84;100715.84;5090701;28;20047;-64
2021/07/01 00:27:12;;;;;;;28.60;3.35;;;;;;;24.86;42.63;100715.44;5090520;28;20119;-64
2021/07/01 00:29:40;;;;;;;4.47;2.10;;;;;;;24.77;42.85;100714.00;5090685;28;20047;-64
2021/07/01 00:32:08;;;;;;;5.22;2.25;;;;;;;24.94;42.25;100711.47;5090857;28;20136;-65
2021/07/01 00:34:36;;;;;;;4.50;1.80;;;;;;;25.01;41.83;100703.97;5090439;28;20039;-64
2021/07/01 00:37:04;;;;;;;4.18;1.80;;;;;;;24.94;41.87;100714.16;5090086;28;20079;-65
2021/07/01 00:39:31;;;;;;;5.45;1.92;;;;;;;25.01;41.89;100703.97;5090070;28;20489;-64
2021/07/01 00:41:59;;;;;;;4.72;2.13;;;;;;;24.88;41.80;100711.69;5090280;28;20339;-66
2021/07/01 00:44:28;;;;;;;5.68;1.73;;;;;;;24.92;41.45;100709.78;5090511;28;20028;-64
2021/07/01 00:46:55;;;;;;;4.05;1.83;;;;;;;24.83;41.84;100713.72;5089901;28;20036;-64
2021/07/01 00:49:23;;;;;;;5.38;1.90;;;;;;;24.77;41.48;100716.69;5090082;28;20468;-64
2021/07/01 00:51:52;;;;;;;4.10;2.10;;;;;;;24.82;41.39;100719.19;5090733;28;20055;-64
2021/07/01 00:54:19;;;;;;;4.15;1.80;;;;;;;24.87;41.39;100722.59;5090200;28;20390;-65
2021/07/01 00:56:48;;;;;;;5.78;2.22;;;;;;;24.90;41.31;100719.78;5089730;28;20042;-65
2021/07/01 00:59:16;;;;;;;4.53;2.13;;;;;;;24.86;41.53;100713.63;5070304;28;20049;-64
2021/07/01 01:01:45;;;;;;;3.78;2.38;;;;;;;24.82;41.99;100714.66;5073559;28;20052;-64
2021/07/01 01:04:13;;;;;;;3.95;1.75;;;;;;;24.74;41.93;100708.75;5089473;28;20119;-65
2021/07/01 01:06:41;;;;;;;3.08;1.88;;;;;;;24.63;42.13;100719.13;5089417;28;20040;-64
2021/07/01 01:09:09;;;;;;;3.38;2.03;;;;;;;24.55;42.15;100708.66;5089683;28;20600;-64
2021/07/01 01:11:37;;;;;;;2.97;1.83;;;;;;;24.51;42.25;100711.56;5089173;28;20036;-64
2021/07/01 01:14:05;;;;;;;3.95;1.70;;;;;;;24.34;42.60;100723.06;5089573;28;20040;-64
2021/07/01 01:16:34;;;;;;;2.22;1.75;;;;;;;24.29;42.79;100714.28;5090255;28;20050;-64
2021/07/01 01:19:03;;;;;;;3.38;1.90;;;;;;;24.32;42.86;100718.66;5089677;28;20117;-64
2021/07/01 01:21:33;;;;;;;4.25;2.20;;;;;;;24.41;42.56;100718.31;5089885;28;20040;-64
2021/07/01 01:24:04;;;;;;;5.07;2.33;;;;;;;24.46;42.34;100722.56;5089019;28;20456;-65
2021/07/01 01:26:32;;;;;;;4.57;2.00;;;;;;;24.40;42.16;100714.72;5089967;28;20127;-64
2021/07/01 01:29:00;;;;;;;4.30;1.85;;;;;;;24.38;41.90;100713.91;5089777;28;20046;-64
2021/07/01 01:31:29;;;;;;;4.10;2.00;;;;;;;24.43;41.69;100719.09;5089210;28;20214;-64
2021/07/01 01:33:57;;;;;;;4.38;1.92;;;;;;;24.38;41.74;100718.41;5089399;28;20506;-65
2021/07/01 01:36:25;;;;;;;4.85;1.85;;;;;;;24.41;41.46;100711.09;5087800;28;20062;-64
2021/07/01 01:38:52;;;;;;;2.97;2.00;;;;;;;24.36;41.73;100715.78;5089391;28;20052;-65
2021/07/01 01:41:25;;;;;;;6.00;2.00;;;;;;;24.31;41.75;100722.31;5089527;28;20097;-64
2021/07/01 01:43:53;;;;;;;4.22;1.88;;;;;;;24.17;42.05;100715.63;5089371;28;20051;-65
2021/07/01 01:46:21;;;;;;;5.43;1.83;;;;;;;24.19;42.17;100715.59;5089318;28;20036;-64
2021/07/01 01:48:52;;;;;;;5.30;1.83;;;;;;;24.03;42.52;100709.03;5089165;28;20044;-64
2021/07/01 01:51:20;;;;;;;2.50;1.67;;;;;;;24.05;42.10;100712.56;5089261;28;20039;-65
2021/07/01 01:53:48;;;;;;;4.72;1.63;;;;;;;24.05;42.10;100720.66;5089014;28;20055;-64
2021/07/01 01:56:20;;;;;;;4.43;2.13;;;;;;;24.11;41.84;100715.00;5088298;28;20040;-65
2021/07/01 01:58:49;;;;;;;2.85;1.70;;;;;;;24.28;41.83;100723.34;5087584;28;20135;-64
2021/07/01 02:01:17;;;;;;;4.85;2.05;;;;;;;24.26;41.97;100730.59;5088118;28;20044;-64
2021/07/01 02:03:44;;;;;;;3.40;2.28;;;;;;;24.15;42.21;100731.03;5088251;28;20729;-64
2021/07/01 02:06:12;;;;;;;3.88;2.00;;;;;;;24.07;42.20;100727.75;5088381;28;20131;-64
2021/07/01 02:08:40;;;;;;;4.90;2.00;;;;;;;23.98;42.30;100729.94;5088782;28;20044;-64
2021/07/01 02:11:07;;;;;;;4.10;2.20;;;;;;;23.89;42.57;100724.91;5088044;28;20501;-64
2021/07/01 02:13:35;;;;;;;4.18;2.20;;;;;;;23.83;42.81;100732.28;5088523;28;20093;-64
2021/07/01 02:16:04;;;;;;;4.65;2.13;;;;;;;23.88;42.80;100724.03;5088551;28;20519;-64
2021/07/01 02:18:32;;;;;;;5.88;2.20;;;;;;;23.94;42.75;100736.41;5088033;28;20043;-64
2021/07/01 02:20:59;;;;;;;4.03;1.98;;;;;;;23.88;42.68;100734.81;5087739;28;20501;-65
2021/07/01 02:23:27;;;;;;;4.68;2.03;;;;;;;23.80;42.69;100736.94;5088380;28;20036;-64
2021/07/01 02:25:55;;;;;;;3.58;2.08;;;;;;;23.76;42.71;100741.56;5077452;28;20047;-64
2021/07/01 02:28:22;;;;;;;2.92;1.98;;;;;;;23.73;42.75;100748.91;5087633;28;20040;-64
2021/07/01 02:30:49;;;;;;;3.40;2.00;;;;;;;23.74;42.78;100743.47;5088720;28;20044;-64
2021/07/01 02:33:19;;;;;;;4.65;1.77;;;;;;;23.87;42.46;100742.97;5088128;28;20445;-64
2021/07/01 02:35:46;;;;;;;3.95;1.90;;;;;;;23.93;42.42;100748.13;5087862;28;20127;-64
2021/07/01 02:38:13;;;;;;;4.35;1.77;;;;;;;23.89;42.61;100750.06;5088260;28;20037;-64
2021/07/01 02:40:41;;;;;;;4.18;2.00;;;;;;;23.80;42.78;100756.69;5088297;28;20123;-64
2021/07/01 02:43:08;;;;;;;3.20;2.00;;;;;;;23.76;42.90;100754.19;5069992;28;20044;-65
2021/07/01 02:45:36;;;;;;;2.97;1.80;;;;;;;23.85;42.82;100748.41;5088351;28;20066;-64
2021/07/01 02:48:04;;;;;;;5.88;2.40;;;;;;;23.89;42.97;100749.19;5088369;28;20044;-64
2021/07/01 02:50:33;;;;;;;4.85;2.25;;;;;;;23.89;43.18;100749.19;5087998;28;20050;-65
2021/07/01 02:53:00;;;;;;;3.30;1.83;;;;;;;23.93;43.23;100753.50;5087383;28;20040;-64
2021/07/01 02:55:28;;;;;;;5.25;2.15;;;;;;;23.97;43.41;100753.31;5087870;28;20047;-65
2021/07/01 02:57:55;;;;;;;3.83;1.90;;;;;;;23.77;43.90;100762.19;5087781;28;20050;-64
2021/07/01 03:00:23;;;;;;;6.65;2.30;;;;;;;23.72;44.08;100756.09;5088732;28;20424;-64
2021/07/01 03:02:51;;;;;;;4.47;2.28;;;;;;;23.82;44.02;100756.63;5087480;28;20040;-64
2021/07/01 03:05:19;;;;;;;5.82;2.10;;;;;;;23.86;44.12;100746.59;5087809;28;20042;-65
2021/07/01 03:07:48;;;;;;;3.33;2.40;;;;;;;23.85;44.17;100751.09;5088149;28;20074;-64
2021/07/01 03:10:15;;;;;;;5.07;2.60;;;;;;;23.86;44.27;100752.00;5089187;28;20111;-64
2021/07/01 03:12:43;;;;;;;7.78;2.60;;;;;;;23.88;44.12;100752.81;5091615;28;20343;-64
2021/07/01 03:15:11;;;;;;;5.10;2.28;;;;;;;23.94;44.03;100747.19;5092043;28;20043;-65
2021/07/01 03:17:39;;;;;;;8.35;2.30;;;;;;;24.05;43.84;100753.03;5091299;28;20509;-64
2021/07/01 03:20:08;;;;;;;3.60;2.03;;;;;;;23.95;44.25;100757.03;5092115;28;20409;-64
2021/07/01 03:22:36;;;;;;;4.40;2.60;;;;;;;24.09;44.22;100752.81;5091884;28;20030;-64
2021/07/01 03:25:06;;;;;;;5.22;2.30;;;;;;;24.31;43.99;100754.69;5091147;28;20256;-64
2021/07/01 03:27:33;;;;;;;4.38;2.50;;;;;;;24.28;44.38;100746.75;5091613;28;20132;-64
2021/07/01 03:30:00;;;;;;;3.03;2.22;;;;;;;24.38;44.03;100762.47;5092118;28;20136;-64
2021/07/01 03:32:28;;;;;;;5.90;2.33;;;;;;;24.54;43.50;100752.81;5091450;28;20039;-63
2021/07/01 03:34:55;;;;;;;5.95;2.60;;;;;;;24.74;43.23;100764.59;5092135;28;20042;-65
2021/07/01 03:37:24;;;;;;;6.55;3.03;;;;;;;24.78;43.12;100755.38;5091452;28;20093;-65
2021/07/01 03:39:51;;;;;;;6.38;2.42;;;;;;;24.94;42.97;100753.84;5091530;28;20044;-65
2021/07/01 03:42:21;;;;;;;6.05;2.60;;;;;;;25.07;42.86;100755.06;5091803;28;20048;-64
2021/07/01 03:44:49;;;;;;;4.90;3.10;;;;;;;25.21;42.92;100757.97;5091198;28;20043;-64
2021/07/01 03:47:17;;;;;;;5.35;2.40;;;;;;;25.27;43.07;100763.13;5090476;28;20497;-64
2021/07/01 03:49:45;;;;;;;5.03;2.53;;;;;;;25.46;42.71;100748.78;5091143;28;20044;-64
2021/07/01 03:52:12;;;;;;;5.22;2.22;;;;;;;25.57;42.98;100752.78;5090693;28;20038;-65
2021/07/01 03:54:40;;;;;;;4.88;2.70;;;;;;;25.67;42.51;100753.19;5091595;28;20048;-64
2021/07/01 03:57:07;;;;;;;6.00;2.70;;;;;;;25.87;42.46;100749.56;5090840;28;20046;-65
2021/07/01 03:59:36;;;;;;;5.82;2.28;;;;;;;26.00;41.79;100748.91;5090955;28;20135;-64
2021/07/01 04:02:04;;;;;;;4.28;2.22;;;;;;;26.03;42.32;100754.19;5091610;28;20128;-64
2021/07/01 04:04:31;;;;;;;7.03;2.60;;;;;;;26.20;42.14;100751.50;5091366;28;20067;-65
2021/07/01 04:06:59;;;;;;;3.70;2.22;;;;;;;26.39;41.83;100747.91;5091092;28;20077;-65
2021/07/01 04:09:26;;;;;;;4.93;2.70;;;;;;;26.50;41.65;100740.16;5090915;28;20043;-64
2021/07/01 04:11:54;;;;;;;5.78;2.47;;;;;;;26.67;41.48;100758.25;5090845;28;20036;-65
2021/07/01 04:14:22;;;;;;;7.30;2.55;;;;;;;26.85;41.29;100750.03;5090280;28;20120;-65
2021/07/01 04:16:51;;;;;;;6.68;2.58;;;;;;;27.05;41.29;100743.59;5091081;28;20512;-64
2021/07/01 04:19:19;;;;;;;5.47;2.70;;;;;;;27.23;41.65;100749.91;5090815;28;20553;-64
2021/07/01 04:21:46;;;;;;;6.55;2.90;;;;;;;27.44;41.79;100745.16;5089296;28;20131;-64
2021/07/01 04:24:14;;;;;;;6.38;2.72;;;;;;;27.65;41.73;100746.72;5090022;28;20389;-65
2021/07/01 04:26:41;;;;;;;5.80;2.67;;;;;;;27.79;41.68;100741.41;5090731;28;20038;-65
2021/07/01 04:29:08;;;;;;;6.35;2.60;;;;;;;27.99;41.44;100748.41;5091053;28;20062;-65
2021/07/01 04:31:36;;;;;;;4.70;2.30;;;;;;;28.22;41.17;100752.56;5090874;28;20117;-64
2021/07/01 04:34:08;;;;;;;7.15;2.58;;;;;;;28.43;40.90;100748.59;5090266;28;20732;-64
2021/07/01 04:36:36;;;;;;;5.18;2.50;;;;;;;28.62;40.46;100753.84;5090160;28;20036;-64
2021/07/01 04:39:04;;;;;;;8.55;2.60;;;;;;;28.80;40.19;100755.47;5088793;28;20404;-64
2021/07/01 04:41:32;;;;;;;5.05;2.40;;;;;;;28.97;39.80;100754.44;5073696;28;20131;-65
2021/07/01 04:43:59;;;;;;;6.57;2.67;;;;;;;29.18;39.61;100764.91;5089492;28;20046;-65
2021/07/01 04:46:27;;;;;;;8.85;3.30;;;;;;;29.46;39.45;100761.38;5090480;28;20115;-65
2021/07/01 04:48:54;;;;;;;6.70;2.63;;;;;;;29.77;39.20;100765.75;5090592;28;20090;-64
2021/07/01 04:51:23;;;;;;;5.72;2.47;;;;;;;30.05;39.19;100767.59;5090239;28;20105;-66
2021/07/01 04:53:51;;;;;;;6.72;2.65;;;;;;;30.27;38.96;100756.13;5090182;28;20115;-65
2021/07/01 04:56:19;;;;;;;5.40;2.78;;;;;;;30.54;38.52;100765.22;5087078;28;20143;-65
2021/07/01 04:58:47;;;;;;;7.53;3.22;;;;;;;30.87;38.23;100767.50;5076339;28;20041;-65
2021/07/01 05:01:15;;;;;;;7.88;2.83;;;;;;;31.12;38.11;100766.72;5086816;28;20123;-65
2021/07/01 05:03:43;;;;;;;6.97;2.63;;;;;;;31.21;38.34;100766.09;5090134;28;20169;-65
2021/07/01 05:06:10;;;;;;;4.78;2.90;;;;;;;31.35;38.37;100768.72;5086204;28;20496;-65
2021/07/01 05:08:39;;;;;;;6.30;2.70;;;;;;;31.60;37.82;100767.88;5089123;28;20050;-65
2021/07/01 05:11:07;;;;;;;5.78;3.00;;;;;;;32.06;37.03;100771.72;5089171;28;20036;-65
2021/07/01 05:13:35;;;;;;;6.53;3.03;;;;;;;32.38;36.69;100780.28;5075132;28;20539;-65
2021/07/01 05:16:02;;;;;;;9.93;2.67;;;;;;;32.68;36.43;100779.88;5089675;28;20093;-65
2021/07/01 05:18:30;;;;;;;5.30;2.53;;;;;;;32.95;36.27;100779.59;5089737;28;20580;-65
2021/07/01 05:20:57;;;;;;;6.22;2.72;;;;;;;33.26;35.18;100782.72;5086664;28;20107;-65
2021/07/01 05:23:24;;;;;;;7.65;2.80;;;;;;;33.44;34.94;100784.88;5086378;28;20040;-65
2021/07/01 05:25:55;;;;;;;6.78;2.58;;;;;;;33.71;34.43;100783.69;5088006;28;20101;-65
2021/07/01 05:28:22;;;;;;;6.32;2.60;;;;;;;33.97;33.27;100783.31;5075485;28;20127;-65
2021/07/01 05:30:50;;;;;;;7.00;3.08;;;;;;;34.12;31.28;100788.53;5069144;28;20123;-65
2021/07/01 05:33:17;;;;;;;5.72;2.40;;;;;;;34.21;30.14;100783.19;5069966;28;20036;-65
2021/07/01 05:35:45;;;;;;;7.72;2.72;;;;;;;34.59;29.79;100784.63;5069733;28;20068;-65
2021/07/01 05:38:13;;;;;;;4.32;2.75;;;;;;;34.85;29.99;100788.78;5071432;28;20033;-65
2021/07/01 05:40:40;;;;;;;4.60;2.35;;;;;;;35.18;29.49;100783.09;5089612;28;20036;-65
2021/07/01 05:43:10;;;;;;;6.28;2.92;;;;;;;35.47;28.96;100782.47;5089497;28;20046;-66
2021/07/01 05:45:37;;;;;;;4.00;2.65;;;;;;;35.63;28.67;100780.13;5087504;28;20043;-65
2021/07/01 05:48:06;;;;;;;3.63;2.60;;;;;;;35.83;27.86;100778.38;5088507;28;20044;-65
2021/07/01 05:50:40;;;;;;;6.43;2.75;;;;;;;36.12;27.02;100775.69;5069023;28;20094;-65
2021/07/01 05:53:09;;;;;;;5.85;2.97;;;;;;;36.29;26.44;100775.06;5078814;28;20110;-65
2021/07/01 05:55:38;;;;;;;4.57;2.28;;;;;;;36.52;25.77;100772.94;5083712;28;20036;-64
2021/07/01 05:58:07;;;;;;;6.55;2.58;;;;;;;36.69;24.88;100770.38;5085422;28;20036;-65
2021/07/01 06:00:38;;;;;;;4.95;2.40;;;;;;;36.93;24.31;100766.31;5078295;28;20096;-65
2021/07/01 06:03:07;;;;;;;3.70;2.40;;;;;;;37.21;24.44;100770.09;5081733;28;20167;-65
2021/07/01 06:05:39;;;;;;;5.95;2.75;;;;;;;37.40;23.63;100770.06;5078350;28;20463;-65
2021/07/01 06:08:11;;;;;;;7.15;2.65;;;;;;;37.48;23.34;100767.44;5076426;28;20081;-65
2021/07/01 06:10:44;;;;;;;5.80;2.70;;;;;;;37.49;23.21;100766.41;5081488;28;20040;-65
2021/07/01 06:13:17;;;;;;;4.50;2.83;;;;;;;37.58;23.00;100765.53;5081490;28;20028;-65
2021/07/01 06:15:49;;;;;;;;;;;;;;;37.64;23.32;100766.81;5079858;28;20044;-65
2021/07/01 06:18:23;;;;;;;6.97;2.47;;;;;;;37.76;22.16;100765.63;5080765;28;20014;-64
2021/07/01 06:20:53;;;;;;;3.30;2.20;;;;;;;37.92;22.07;100764.97;5079721;28;20066;-65
2021/07/01 06:23:21;;;;;;;4.13;2.60;;;;;;;37.96;21.88;100769.16;5079988;28;20048;-65
2021/07/01 06:25:49;;;;;;;6.28;2.58;;;;;;;38.05;21.41;100765.53;5079966;28;20052;-66
2021/07/01 06:28:17;;;;;;;4.68;2.72;;;;;;;38.12;21.45;100769.41;5081947;28;20475;-65
2021/07/01 06:30:47;;;;;;;9.00;2.70;;;;;;;38.29;21.33;100765.81;5080561;28;20044;-65
2021/07/01 06:33:17;;;;;;;4.93;2.63;;;;;;;38.41;21.33;100764.56;5083348;28;20507;-65
2021/07/01 06:35:49;;;;;;;8.48;2.80;;;;;;;38.53;21.26;100768.03;5083438;28;20044;-65
2021/07/01 06:38:22;;;;;;;7.40;2.65;;;;;;;38.59;21.32;100768.28;5082863;28;20040;-65
2021/07/01 06:40:52;;;;;;;6.75;2.70;;;;;;;38.66;21.35;100755.53;5086202;28;20444;-65
2021/07/01 06:43:22;;;;;;;8.07;2.83;;;;;;;38.75;20.71;100762.03;5088319;28;20051;-66
2021/07/01 06:45:51;;;;;;;3.20;2.20;;;;;;;38.85;20.78;100760.06;5090659;28;20044;-65
2021/07/01 06:48:22;;;;;;;5.35;2.55;;;;;;;38.81;20.66;100755.00;5092447;28;20497;-65
2021/07/01 06:50:52;;;;;;;7.68;2.88;;;;;;;38.87;20.93;100746.94;5092633;28;20044;-65
2021/07/01 06:53:22;;;;;;;5.18;2.92;;;;;;;38.87;20.65;100754.34;5090816;28;20040;-65
2021/07/01 06:55:52;;;;;;;6.28;2.35;;;;;;;38.88;19.99;100743.16;5073901;28;20036;-66
2021/07/01 06:58:20;;;;;;;7.65;2.80;;;;;;;39.02;19.82;100736.22;5085360;28;20089;-66
2021/07/01 07:00:49;;;;;;;7.32;2.65;;;;;;;39.15;19.66;100735.81;5086598;28;20490;-65
2021/07/01 07:03:20;;;;;;;7.95;3.05;;;;;;;39.21;19.38;100727.75;5072061;28;20049;-65
2021/07/01 07:05:50;;;;;;;5.75;2.75;;;;;;;39.32;19.04;100733.00;5071901;28;20064;-66
2021/07/01 07:08:19;;;;;;;6.00;2.75;;;;;;;39.47;19.58;100726.91;5081172;28;20035;-65
2021/07/01 07:10:46;;;;;;;6.22;2.90;;;;;;;39.61;19.44;100724.41;5092306;28;20119;-65
2021/07/01 07:13:15;;;;;;;8.85;3.08;;;;;;;39.44;19.09;100712.41;5091669;28;20040;-65
2021/07/01 07:15:44;;;;;;;5.75;2.70;;;;;;;39.56;19.11;100715.75;5090223;28;20042;-65
2021/07/01 07:18:19;;;;;;;7.43;2.45;;;;;;;39.74;19.04;100721.19;5087406;28;20119;-66
2021/07/01 07:20:52;;;;;;;10.07;3.67;;;;;;;39.76;18.87;100713.59;5088560;28;20048;-65
2021/07/01 07:23:27;;;;;;;7.45;3.53;;;;;;;39.70;19.11;100719.78;5091712;28;20367;-65
2021/07/01 07:25:56;;;;;;;6.78;2.45;;;;;;;39.64;18.49;100715.78;5073504;28;20044;-65
2021/07/01 07:28:25;;;;;;;6.68;2.78;;;;;;;39.69;18.48;100721.69;5072698;28;20098;-65
2021/07/01 07:30:55;;;;;;;5.47;2.80;;;;;;;39.68;18.84;100722.72;5072688;28;20047;-66
2021/07/01 07:33:27;;;;;;;9.40;2.97;;;;;;;39.40;18.83;100713.75;5072139;28;20044;-65
2021/07/01 07:35:54;;;;;;;4.53;2.75;;;;;;;39.54;19.11;100717.78;5090915;28;20552;-65
2021/07/01 07:38:25;;;;;;;8.02;3.88;;;;;;;39.55;18.85;100719.53;5089987;28;20056;-65
2021/07/01 07:40:53;;;;;;;6.55;2.55;;;;;;;39.66;18.97;100710.06;5091468;28;20046;-67
2021/07/01 07:43:22;;;;;;;6.90;2.60;;;;;;;39.52;19.15;100714.31;5091059;28;20119;-66
2021/07/01 07:45:51;;;;;;;7.93;2.70;;;;;;;39.32;19.11;100712.81;5091409;28;20042;-66
2021/07/01 07:48:19;;;;;;;7.00;2.33;;;;;;;39.28;19.19;100709.50;5091560;28;20046;-65
2021/07/01 07:50:51;;;;;;;5.75;2.92;;;;;;;39.41;19.04;100707.19;5091340;28;20123;-66
2021/07/01 07:53:24;;;;;;;7.85;2.70;;;;;;;39.61;19.28;100706.94;5082152;28;20086;-66
2021/07/01 07:56:01;;;;;;;7.70;2.47;;;;;;;39.69;19.06;100707.00;5071502;28;20484;-65
2021/07/01 07:58:31;;;;;;;7.55;2.50;;;;;;;39.81;19.13;100706.56;5066269;28;20040;-65
2021/07/01 08:01:00;;;;;;;5.13;2.15;;;;;;;39.96;18.80;100711.47;5085673;28;20604;-66
2021/07/01 08:03:30;;;;;;;8.77;3.03;;;;;;;40.05;18.33;100713.19;5070991;28;20051;-65
2021/07/01 08:06:01;;;;;;;5.78;2.47;;;;;;;40.03;18.50;100724.47;5070967;28;20516;-65
2021/07/01 08:08:31;;;;;;;12.32;3.50;;;;;;;40.00;18.36;100730.31;5071820;28;20635;-65
2021/07/01 08:10:59;;;;;;;8.05;2.80;;;;;;;39.96;18.23;100737.22;5071438;28;20106;-65
2021/07/01 08:13:29;;;;;;;6.38;2.50;;;;;;;39.84;18.17;100741.34;5090640;28;20051;-66
2021/07/01 08:15:57;;;;;;;9.52;2.47;;;;;;;39.94;18.39;100732.88;5076834;28;20043;-66
2021/07/01 08:18:32;;;;;;;8.95;2.70;;;;;;;39.94;18.67;100744.81;5089819;28;20040;-66
2021/07/01 08:21:01;;;;;;;4.65;2.38;;;;;;;39.89;18.57;100746.34;5090669;28;20058;-65
2021/07/01 08:23:28;;;;;;;5.50;2.60;;;;;;;39.91;19.08;100745.13;5081888;28;20051;-65
2021/07/01 08:25:56;;;;;;;6.20;2.30;;;;;;;39.95;19.06;100745.69;5070900;28;20047;-66
2021/07/01 08:28:23;;;;;;;8.07;2.53;;;;;;;39.84;19.06;100756.00;5066807;28;20406;-66
2021/07/01 08:30:51;;;;;;;10.38;2.55;;;;;;;39.77;19.36;100756.81;5070934;28;20111;-66
2021/07/01 08:33:21;;;;;;;7.13;2.22;;;;;;;39.71;19.44;100754.72;5072953;28;20135;-65
2021/07/01 08:35:56;;;;;;;6.05;2.45;;;;;;;39.77;20.30;100754.06;5070510;28;20037;-65
2021/07/01 08:38:26;;;;;;;6.90;3.10;;;;;;;39.83;19.90;100756.19;5070816;28;20045;-66
2021/07/01 08:41:00;;;;;;;10.10;2.78;;;;;;;40.06;19.65;100760.09;5070335;28;20059;-66
2021/07/01 08:43:41;;;;;;;5.28;2.60;;;;;;;40.14;19.42;100751.81;5051901;28;20058;-66
2021/07/01 08:46:14;;;;;;;7.40;2.97;;;;;;;40.27;19.41;100756.91;5075898;28;20032;-65
2021/07/01 08:49:00;;;;;;;7.60;3.10;;;;;;;40.35;19.91;100756.06;5090669;28;20056;-66
2021/07/01 08:51:30;;;;;;;7.13;3.20;;;;;;;40.33;20.35;100749.81;5090022;28;20431;-66
2021/07/01 08:54:16;;;;;;;6.95;2.63;;;;;;;40.09;20.38;100751.47;5088943;28;20486;-66
2021/07/01 08:56:45;;;;;;;9.90;3.03;;;;;;;40.00;20.47;100752.44;5070429;28;20037;-66
2021/07/01 08:59:13;;;;;;;8.93;2.88;;;;;;;39.89;20.64;100758.28;5071663;28;20056;-66
2021/07/01 09:01:42;;;;;;;5.07;2.78;;;;;;;39.97;20.64;100747.28;5089552;28;20043;-65
2021/07/01 09:04:13;;;;;;;5.72;3.13;;;;;;;39.95;20.97;100740.16;5089955;28;20043;-65
2021/07/01 09:06:42;;;;;;;8.27;3.35;;;;;;;39.93;20.88;100745.84;5090230;28;20040;-65
2021/07/01 09:09:12;;;;;;;7.07;2.75;;;;;;;39.92;21.30;100741.34;5089332;28;20523;-66
2021/07/01 09:11:41;;;;;;;8.55;3.20;;;;;;;39.92;21.24;100744.09;5088135;28;20063;-66
2021/07/01 09:14:11;;;;;;;7.25;3.10;;;;;;;39.71;21.23;100747.28;5089907;28;20046;-66
2021/07/01 09:16:40;;;;;;;5.43;3.40;;;;;;;39.30;22.16;100742.50;5090175;28;20078;-67
2021/07/01 09:19:08;;;;;;;6.15;2.72;;;;;;;39.45;21.54;100743.69;5090210;28;20032;-66
2021/07/01 09:21:36;;;;;;;6.50;2.95;;;;;;;39.36;21.84;100739.97;5088780;28;20040;-66
2021/07/01 09:24:05;;;;;;;4.25;2.90;;;;;;;39.12;22.24;100742.53;5088442;28;20535;-66
2021/07/01 09:26:34;;;;;;;5.57;3.03;;;;;;;39.24;21.98;100748.66;5088787;28;20557;-66
2021/07/01 09:29:02;;;;;;;8.00;3.00;;;;;;;39.39;21.84;100741.53;5085553;28;20036;-65
2021/07/01 09:31:30;;;;;;;5.90;3.42;;;;;;;39.45;21.65;100749.22;5082052;28;20498;-66
2021/07/01 09:33:57;;;;;;;6.82;2.90;;;;;;;39.44;21.89;100745.56;5079441;28;20584;-65
2021/07/01 09:36:26;;;;;;;6.55;3.20;;;;;;;39.50;21.88;100735.75;5075757;28;20047;-66
2021/07/01 09:38:57;;;;;;;6.75;2.92;;;;;;;39.48;21.93;100734.16;5088637;28;20056;-66
2021/07/01 09:41:24;;;;;;;5.88;2.47;;;;;;;39.48;22.17;100740.56;5081554;28;20050;-66
2021/07/01 09:43:55;;;;;;;6.82;3.30;;;;;;;39.54;21.94;100739.03;5079158;28;20127;-65
2021/07/01 09:46:28;;;;;;;5.43;2.97;;;;;;;39.71;21.70;100743.66;5088029;28;20048;-65
2021/07/01 09:49:01;;;;;;;8.77;2.97;;;;;;;39.60;21.99;100736.50;5077793;28;20054;-66
2021/07/01 09:51:30;;;;;;;7.75;2.80;;;;;;;39.41;21.90;100739.47;5061282;28;20630;-65
2021/07/01 09:54:02;;;;;;;9.77;3.05;;;;;;;39.43;22.00;100729.16;5087451;28;20040;-66
2021/07/01 09:56:37;;;;;;;9.57;3.35;;;;;;;39.34;21.44;100728.19;5087755;28;20040;-65
2021/07/01 09:59:14;;;;;;;12.07;3.28;;;;;;;39.42;20.69;100739.34;5090013;28;20042;-65
2021/07/01 10:01:42;;;;;;;10.40;3.13;;;;;;;39.54;20.70;100737.16;5081043;28;20060;-65
2021/07/01 10:04:09;;;;;;;10.52;3.17;;;;;;;39.63;20.97;100730.66;5084550;28;20058;-65
2021/07/01 10:06:37;;;;;;;9.20;3.42;;;;;;;39.74;21.21;100743.31;5085490;28;20047;-65
2021/07/01 10:09:07;;;;;;;8.85;3.30;;;;;;;39.87;21.04;100746.50;5085262;28;20437;-66
2021/07/01 10:11:39;;;;;;;9.55;3.35;;;;;;;39.93;21.32;100745.84;5083349;28;20064;-66
2021/07/01 10:14:10;;;;;;;15.02;3.83;;;;;;;39.94;21.03;100747.59;5087517;28;20036;-65
2021/07/01 10:16:38;;;;;;;11.57;3.90;;;;;;;40.01;20.75;100761.63;5087931;28;20047;-64
2021/07/01 10:19:08;;;;;;;6.47;2.75;;;;;;;39.91;20.50;100756.19;5086597;28;20580;-65
2021/07/01 10:21:37;;;;;;;10.40;4.00;;;;;;;39.71;20.74;100755.59;5084065;28;20097;-65
2021/07/01 10:24:15;;;;;;;9.93;3.38;;;;;;;39.60;21.20;100752.22;5085149;28;20052;-65
2021/07/01 10:26:46;;;;;;;9.32;3.15;;;;;;;39.65;21.18;100750.69;5084729;28;20044;-64
2021/07/01 10:29:16;;;;;;;9.30;3.20;;;;;;;39.57;21.25;100755.31;5087263;28;20032;-65
2021/07/01 10:49:19;;;;;;;6.15;3.65;;;;;;;39.74;21.41;100751.59;4993933;28;20121;-66
2021/07/01 10:51:58;;;;;;;10.13;3.63;;;;;;;39.52;21.20;100750.25;4996051;28;20147;-66
2021/07/01 10:54:26;;;;;;;10.07;3.95;;;;;;;39.44;21.57;100748.34;4990563;28;20477;-66
2021/07/01 10:56:56;;;;;;;8.02;3.55;;;;;;;39.45;21.89;100746.44;4995007;28;20065;-66
2021/07/01 10:59:24;;;;;;;6.30;3.00;;;;;;;39.33;22.25;100745.78;4990769;28;20100;-67
2021/07/01 11:01:54;;;;;;;10.55;3.30;;;;;;;39.59;22.25;100747.69;4992664;28;20191;-66
2021/07/01 11:04:23;;;;;;;8.07;3.42;;;;;;;39.76;21.97;100749.53;4999402;28;20506;-66
2021/07/01 11:07:03;;;;;;;5.93;3.05;;;;;;;39.81;21.89;100750.81;4988818;28;20053;-67
2021/07/01 11:09:43;;;;;;;10.70;3.35;;;;;;;40.07;21.58;100758.19;4996155;28;20049;-67
2021/07/01 11:12:13;;;;;;;6.60;3.10;;;;;;;39.90;21.63;100751.72;4992852;28;20517;-66
2021/07/01 11:14:42;;;;;;;6.28;3.20;;;;;;;39.87;21.43;100752.03;4990082;28;20046;-66
2021/07/01 11:17:10;;;;;;;11.25;3.60;;;;;;;40.17;21.11;100754.22;4990124;28;20045;-66
2021/07/01 11:19:45;;;;;;;5.20;2.88;;;;;;;40.41;21.05;100753.50;4986259;28;20435;-67
2021/07/01 11:22:14;;;;;;;8.38;3.00;;;;;;;40.62;21.02;100758.56;4991299;28;20088;-66
2021/07/01 11:24:44;;;;;;;7.70;3.42;;;;;;;40.94;20.59;100757.75;4993945;28;20046;-66
2021/07/01 11:27:12;;;;;;;9.30;3.13;;;;;;;41.11;20.41;100753.94;4991192;28;20049;-66
2021/07/01 11:29:42;;;;;;;11.68;3.47;;;;;;;41.03;20.05;100753.91;4990513;28;20057;-67
2021/07/01 11:43:29;;;;;;;7.68;3.13;;;;;;;41.67;19.61;100757.72;5049081;27;21069;-67
2021/07/01 11:45:57;;;;;;;6.10;3.33;;;;;;;41.20;20.17;100754.81;5047696;28;20059;-66
2021/07/01 11:48:27;;;;;;;7.00;3.38;;;;;;;41.16;20.03;100759.84;5045512;28;20515;-67
2021/07/01 11:50:56;;;;;;;7.75;2.83;;;;;;;40.94;20.01;100771.59;5045789;28;20136;-67
2021/07/01 11:53:25;;;;;;;5.70;3.00;;;;;;;40.92;20.47;100763.44;5045760;28;20106;-67
2021/07/01 11:55:57;;;;;;;6.65;3.13;;;;;;;41.07;20.30;100762.75;5045436;28;20048;-67
2021/07/01 11:58:24;;;;;;;6.47;3.25;;;;;;;41.23;20.19;100768.31;5046328;28;20054;-67
2021/07/01 12:00:54;;;;;;;8.02;3.30;;;;;;;41.38;20.10;100767.44;5046271;28;20040;-67